sensor_id;sensor_type;location;lat;lon;timestamp;P1;durP1;ratioP1;P2;durP2;ratioP2
7181;SDS011;3632;42.724;23.298;2022-10-16T00:02:18;16.87;;;14.03;;
7181;SDS011;3632;42.724;23.298;2022-10-16T00:04:54;16.10;;;14.40;;
7181;SDS011;3632;42.724;23.298;2022-10-16T00:07:30;17.37;;;15.10;;
7181;SDS011;3632;42.724;23.298;2022-10-16T00:10:10;16.47;;;13.77;;
7181;SDS011;3632;42.724;23.298;2022-10-16T00:12:44;16.53;;;13.63;;
7181;SDS011;3632;42.724;23.298;2022-10-16T00:15:27;16.53;;;13.30;;
7181;SDS011;3632;42.724;23.298;2022-10-16T00:17:54;13.50;;;12.10;;
7181;SDS011;3632;42.724;23.298;2022-10-16T00:20:21;12.90;;;11.60;;
7181;SDS011;3632;42.724;23.298;2022-10-16T00:22:48;13.97;;;11.10;;
7181;SDS011;3632;42.724;23.298;2022-10-16T00:25:16;12.63;;;10.73;;
7181;SDS011;3632;42.724;23.298;2022-10-16T00:27:43;11.97;;;10.53;;
7181;SDS011;3632;42.724;23.298;2022-10-16T00:30:11;13.83;;;11.27;;
7181;SDS011;3632;42.724;23.298;2022-10-16T00:32:38;15.33;;;11.53;;
7181;SDS011;3632;42.724;23.298;2022-10-16T00:35:05;12.93;;;10.40;;
7181;SDS011;3632;42.724;23.298;2022-10-16T00:37:33;12.97;;;11.43;;
7181;SDS011;3632;42.724;23.298;2022-10-16T00:40:00;13.97;;;11.03;;
7181;SDS011;3632;42.724;23.298;2022-10-16T00:42:29;12.53;;;10.77;;
7181;SDS011;3632;42.724;23.298;2022-10-16T00:44:56;13.00;;;11.67;;
7181;SDS011;3632;42.724;23.298;2022-10-16T00:47:26;15.13;;;11.70;;
7181;SDS011;3632;42.724;23.298;2022-10-16T00:49:58;17.03;;;12.17;;
7181;SDS011;3632;42.724;23.298;2022-10-16T00:52:28;14.00;;;11.87;;
7181;SDS011;3632;42.724;23.298;2022-10-16T00:54:55;15.07;;;11.20;;
7181;SDS011;3632;42.724;23.298;2022-10-16T00:57:24;11.67;;;10.00;;
7181;SDS011;3632;42.724;23.298;2022-10-16T00:59:53;15.20;;;10.60;;
7181;SDS011;3632;42.724;23.298;2022-10-16T01:02:20;11.27;;;9.97;;
7181;SDS011;3632;42.724;23.298;2022-10-16T01:04:48;10.57;;;8.97;;
7181;SDS011;3632;42.724;23.298;2022-10-16T01:07:20;10.13;;;8.50;;
7181;SDS011;3632;42.724;23.298;2022-10-16T01:10:03;11.67;;;9.17;;
7181;SDS011;3632;42.724;23.298;2022-10-16T01:12:39;13.47;;;9.60;;
7181;SDS011;3632;42.724;23.298;2022-10-16T01:15:14;11.80;;;9.60;;
7181;SDS011;3632;42.724;23.298;2022-10-16T01:17:50;11.63;;;9.10;;
7181;SDS011;3632;42.724;23.298;2022-10-16T01:20:26;14.53;;;9.73;;
7181;SDS011;3632;42.724;23.298;2022-10-16T01:22:59;15.37;;;9.40;;
7181;SDS011;3632;42.724;23.298;2022-10-16T01:25:39;11.00;;;9.57;;
7181;SDS011;3632;42.724;23.298;2022-10-16T01:28:25;12.33;;;9.33;;
7181;SDS011;3632;42.724;23.298;2022-10-16T01:30:56;13.27;;;9.60;;
7181;SDS011;3632;42.724;23.298;2022-10-16T01:33:26;10.87;;;8.90;;
7181;SDS011;3632;42.724;23.298;2022-10-16T01:35:58;10.83;;;9.70;;
7181;SDS011;3632;42.724;23.298;2022-10-16T01:38:30;11.47;;;8.77;;
7181;SDS011;3632;42.724;23.298;2022-10-16T01:41:01;11.17;;;9.13;;
7181;SDS011;3632;42.724;23.298;2022-10-16T01:43:35;11.03;;;9.17;;
7181;SDS011;3632;42.724;23.298;2022-10-16T01:46:05;10.37;;;9.20;;
7181;SDS011;3632;42.724;23.298;2022-10-16T01:48:34;12.17;;;9.00;;
7181;SDS011;3632;42.724;23.298;2022-10-16T01:51:03;11.77;;;9.87;;
7181;SDS011;3632;42.724;23.298;2022-10-16T01:53:34;12.97;;;10.07;;
7181;SDS011;3632;42.724;23.298;2022-10-16T01:56:04;14.37;;;9.83;;
7181;SDS011;3632;42.724;23.298;2022-10-16T01:58:40;12.83;;;9.87;;
7181;SDS011;3632;42.724;23.298;2022-10-16T02:01:13;14.73;;;10.83;;
7181;SDS011;3632;42.724;23.298;2022-10-16T02:03:46;12.00;;;9.97;;
7181;SDS011;3632;42.724;23.298;2022-10-16T02:06:18;16.37;;;10.60;;
7181;SDS011;3632;42.724;23.298;2022-10-16T02:08:48;13.20;;;10.30;;
7181;SDS011;3632;42.724;23.298;2022-10-16T02:11:16;14.53;;;10.40;;
7181;SDS011;3632;42.724;23.298;2022-10-16T02:13:46;13.20;;;10.17;;
7181;SDS011;3632;42.724;23.298;2022-10-16T02:16:19;14.30;;;10.63;;
7181;SDS011;3632;42.724;23.298;2022-10-16T02:18:47;14.67;;;10.87;;
7181;SDS011;3632;42.724;23.298;2022-10-16T02:21:16;12.60;;;10.73;;
7181;SDS011;3632;42.724;23.298;2022-10-16T02:23:51;18.07;;;12.00;;
7181;SDS011;3632;42.724;23.298;2022-10-16T02:26:25;14.60;;;11.17;;
7181;SDS011;3632;42.724;23.298;2022-10-16T02:28:59;15.87;;;11.60;;
7181;SDS011;3632;42.724;23.298;2022-10-16T02:31:31;14.27;;;11.43;;
7181;SDS011;3632;42.724;23.298;2022-10-16T02:34:01;14.83;;;10.57;;
7181;SDS011;3632;42.724;23.298;2022-10-16T02:36:31;13.53;;;11.03;;
7181;SDS011;3632;42.724;23.298;2022-10-16T02:39:00;12.97;;;10.40;;
7181;SDS011;3632;42.724;23.298;2022-10-16T02:41:30;10.97;;;8.97;;
7181;SDS011;3632;42.724;23.298;2022-10-16T02:43:57;13.30;;;10.33;;
7181;SDS011;3632;42.724;23.298;2022-10-16T02:46:25;12.87;;;8.90;;
7181;SDS011;3632;42.724;23.298;2022-10-16T02:48:51;12.90;;;8.90;;
7181;SDS011;3632;42.724;23.298;2022-10-16T02:51:18;11.50;;;8.63;;
7181;SDS011;3632;42.724;23.298;2022-10-16T02:53:45;10.87;;;8.80;;
7181;SDS011;3632;42.724;23.298;2022-10-16T02:56:12;12.13;;;9.20;;
7181;SDS011;3632;42.724;23.298;2022-10-16T02:58:39;14.83;;;9.90;;
7181;SDS011;3632;42.724;23.298;2022-10-16T03:01:08;13.83;;;10.00;;
7181;SDS011;3632;42.724;23.298;2022-10-16T03:03:35;13.60;;;10.87;;
7181;SDS011;3632;42.724;23.298;2022-10-16T03:06:02;17.07;;;12.37;;
7181;SDS011;3632;42.724;23.298;2022-10-16T03:08:29;19.33;;;14.23;;
7181;SDS011;3632;42.724;23.298;2022-10-16T03:10:55;18.67;;;14.93;;
7181;SDS011;3632;42.724;23.298;2022-10-16T03:13:22;19.33;;;15.50;;
7181;SDS011;3632;42.724;23.298;2022-10-16T03:15:49;22.27;;;14.20;;
7181;SDS011;3632;42.724;23.298;2022-10-16T03:18:17;19.07;;;15.10;;
7181;SDS011;3632;42.724;23.298;2022-10-16T03:20:44;17.77;;;13.53;;
7181;SDS011;3632;42.724;23.298;2022-10-16T03:23:10;15.37;;;12.57;;
7181;SDS011;3632;42.724;23.298;2022-10-16T03:25:37;19.00;;;12.50;;
7181;SDS011;3632;42.724;23.298;2022-10-16T03:28:04;18.00;;;12.70;;
7181;SDS011;3632;42.724;23.298;2022-10-16T03:30:31;15.50;;;12.77;;
7181;SDS011;3632;42.724;23.298;2022-10-16T03:32:58;17.97;;;12.37;;
7181;SDS011;3632;42.724;23.298;2022-10-16T03:35:26;17.73;;;12.20;;
7181;SDS011;3632;42.724;23.298;2022-10-16T03:37:53;16.67;;;11.70;;
7181;SDS011;3632;42.724;23.298;2022-10-16T03:40:19;14.87;;;10.97;;
7181;SDS011;3632;42.724;23.298;2022-10-16T03:42:46;15.87;;;11.57;;
7181;SDS011;3632;42.724;23.298;2022-10-16T03:45:13;17.80;;;11.33;;
7181;SDS011;3632;42.724;23.298;2022-10-16T03:47:40;20.10;;;13.20;;
7181;SDS011;3632;42.724;23.298;2022-10-16T03:50:07;23.30;;;17.30;;
7181;SDS011;3632;42.724;23.298;2022-10-16T03:52:36;24.73;;;17.97;;
7181;SDS011;3632;42.724;23.298;2022-10-16T03:55:03;23.27;;;16.37;;
7181;SDS011;3632;42.724;23.298;2022-10-16T03:57:30;20.77;;;14.73;;
7181;SDS011;3632;42.724;23.298;2022-10-16T03:59:57;24.97;;;16.13;;
7181;SDS011;3632;42.724;23.298;2022-10-16T04:02:23;18.67;;;14.17;;
7181;SDS011;3632;42.724;23.298;2022-10-16T04:04:50;16.53;;;11.33;;
7181;SDS011;3632;42.724;23.298;2022-10-16T04:07:17;15.10;;;10.73;;
7181;SDS011;3632;42.724;23.298;2022-10-16T04:09:45;13.43;;;10.23;;
7181;SDS011;3632;42.724;23.298;2022-10-16T04:12:12;15.10;;;10.20;;
7181;SDS011;3632;42.724;23.298;2022-10-16T04:14:39;11.83;;;9.40;;
7181;SDS011;3632;42.724;23.298;2022-10-16T04:17:06;13.67;;;9.77;;
7181;SDS011;3632;42.724;23.298;2022-10-16T04:19:33;14.53;;;10.37;;
7181;SDS011;3632;42.724;23.298;2022-10-16T04:21:59;15.60;;;11.57;;
7181;SDS011;3632;42.724;23.298;2022-10-16T04:24:26;15.93;;;10.47;;
7181;SDS011;3632;42.724;23.298;2022-10-16T04:26:54;12.77;;;10.67;;
7181;SDS011;3632;42.724;23.298;2022-10-16T04:29:21;12.80;;;9.60;;
7181;SDS011;3632;42.724;23.298;2022-10-16T04:31:48;14.60;;;9.80;;
7181;SDS011;3632;42.724;23.298;2022-10-16T04:34:15;15.00;;;10.37;;
7181;SDS011;3632;42.724;23.298;2022-10-16T04:36:42;13.97;;;9.50;;
7181;SDS011;3632;42.724;23.298;2022-10-16T04:39:08;11.17;;;8.63;;
7181;SDS011;3632;42.724;23.298;2022-10-16T04:41:35;11.30;;;9.23;;
7181;SDS011;3632;42.724;23.298;2022-10-16T04:44:03;12.67;;;9.83;;
7181;SDS011;3632;42.724;23.298;2022-10-16T04:46:30;14.43;;;10.00;;
7181;SDS011;3632;42.724;23.298;2022-10-16T04:48:57;14.67;;;10.07;;
7181;SDS011;3632;42.724;23.298;2022-10-16T04:51:24;14.40;;;10.20;;
7181;SDS011;3632;42.724;23.298;2022-10-16T04:53:52;15.47;;;11.80;;
7181;SDS011;3632;42.724;23.298;2022-10-16T04:56:19;17.03;;;11.70;;
7181;SDS011;3632;42.724;23.298;2022-10-16T04:58:46;14.10;;;11.20;;
7181;SDS011;3632;42.724;23.298;2022-10-16T05:01:14;14.20;;;11.57;;
7181;SDS011;3632;42.724;23.298;2022-10-16T05:03:41;16.37;;;11.27;;
7181;SDS011;3632;42.724;23.298;2022-10-16T05:06:08;18.37;;;11.40;;
7181;SDS011;3632;42.724;23.298;2022-10-16T05:08:34;17.73;;;13.37;;
7181;SDS011;3632;42.724;23.298;2022-10-16T05:11:01;20.77;;;15.00;;
7181;SDS011;3632;42.724;23.298;2022-10-16T05:13:28;28.53;;;21.33;;
7181;SDS011;3632;42.724;23.298;2022-10-16T05:15:55;31.77;;;24.10;;
7181;SDS011;3632;42.724;23.298;2022-10-16T05:18:23;30.10;;;22.40;;
7181;SDS011;3632;42.724;23.298;2022-10-16T05:20:50;29.93;;;22.93;;
7181;SDS011;3632;42.724;23.298;2022-10-16T05:23:16;31.13;;;22.70;;
7181;SDS011;3632;42.724;23.298;2022-10-16T05:25:43;30.40;;;22.57;;
7181;SDS011;3632;42.724;23.298;2022-10-16T05:28:18;28.67;;;22.30;;
7181;SDS011;3632;42.724;23.298;2022-10-16T05:30:45;31.37;;;22.50;;
7181;SDS011;3632;42.724;23.298;2022-10-16T05:33:12;30.37;;;22.30;;
7181;SDS011;3632;42.724;23.298;2022-10-16T05:35:40;30.60;;;22.87;;
7181;SDS011;3632;42.724;23.298;2022-10-16T05:38:06;27.33;;;21.23;;
7181;SDS011;3632;42.724;23.298;2022-10-16T05:40:33;27.67;;;20.70;;
7181;SDS011;3632;42.724;23.298;2022-10-16T05:43:00;29.80;;;20.07;;
7181;SDS011;3632;42.724;23.298;2022-10-16T05:45:27;25.00;;;18.17;;
7181;SDS011;3632;42.724;23.298;2022-10-16T05:47:53;21.13;;;16.37;;
7181;SDS011;3632;42.724;23.298;2022-10-16T05:50:20;20.37;;;16.50;;
7181;SDS011;3632;42.724;23.298;2022-10-16T05:52:48;21.67;;;15.67;;
7181;SDS011;3632;42.724;23.298;2022-10-16T05:55:15;21.40;;;14.90;;
7181;SDS011;3632;42.724;23.298;2022-10-16T05:57:42;21.00;;;15.13;;
7181;SDS011;3632;42.724;23.298;2022-10-16T06:00:09;22.87;;;15.27;;
7181;SDS011;3632;42.724;23.298;2022-10-16T06:02:36;17.63;;;14.17;;
7181;SDS011;3632;42.724;23.298;2022-10-16T06:05:04;17.50;;;13.17;;
7181;SDS011;3632;42.724;23.298;2022-10-16T06:07:33;15.60;;;11.53;;
7181;SDS011;3632;42.724;23.298;2022-10-16T06:10:02;14.90;;;11.20;;
7181;SDS011;3632;42.724;23.298;2022-10-16T06:12:30;15.87;;;11.70;;
7181;SDS011;3632;42.724;23.298;2022-10-16T06:14:57;17.73;;;10.90;;
7181;SDS011;3632;42.724;23.298;2022-10-16T06:17:24;14.00;;;10.93;;
7181;SDS011;3632;42.724;23.298;2022-10-16T06:19:50;16.73;;;10.60;;
7181;SDS011;3632;42.724;23.298;2022-10-16T06:22:17;14.03;;;10.30;;
7181;SDS011;3632;42.724;23.298;2022-10-16T06:24:44;13.23;;;10.00;;
7181;SDS011;3632;42.724;23.298;2022-10-16T06:27:14;11.67;;;8.37;;
7181;SDS011;3632;42.724;23.298;2022-10-16T06:29:40;10.10;;;8.17;;
7181;SDS011;3632;42.724;23.298;2022-10-16T06:32:08;10.73;;;9.03;;
7181;SDS011;3632;42.724;23.298;2022-10-16T06:34:34;11.63;;;8.60;;
7181;SDS011;3632;42.724;23.298;2022-10-16T06:37:01;14.30;;;8.70;;
7181;SDS011;3632;42.724;23.298;2022-10-16T06:39:28;12.90;;;8.23;;
7181;SDS011;3632;42.724;23.298;2022-10-16T06:41:55;11.17;;;8.57;;
7181;SDS011;3632;42.724;23.298;2022-10-16T06:44:23;13.30;;;8.80;;
7181;SDS011;3632;42.724;23.298;2022-10-16T06:46:50;13.80;;;8.80;;
7181;SDS011;3632;42.724;23.298;2022-10-16T06:49:17;11.63;;;8.37;;
7181;SDS011;3632;42.724;23.298;2022-10-16T06:51:47;12.53;;;8.83;;
7181;SDS011;3632;42.724;23.298;2022-10-16T06:54:14;10.03;;;8.57;;
7181;SDS011;3632;42.724;23.298;2022-10-16T06:56:43;10.70;;;8.57;;
7181;SDS011;3632;42.724;23.298;2022-10-16T06:59:09;10.13;;;8.30;;
7181;SDS011;3632;42.724;23.298;2022-10-16T07:01:38;10.20;;;8.20;;
7181;SDS011;3632;42.724;23.298;2022-10-16T07:04:05;12.67;;;8.23;;
7181;SDS011;3632;42.724;23.298;2022-10-16T07:06:32;12.03;;;8.30;;
7181;SDS011;3632;42.724;23.298;2022-10-16T07:09:00;12.73;;;8.00;;
7181;SDS011;3632;42.724;23.298;2022-10-16T07:11:29;10.97;;;7.50;;
7181;SDS011;3632;42.724;23.298;2022-10-16T07:13:55;14.70;;;9.43;;
7181;SDS011;3632;42.724;23.298;2022-10-16T07:16:23;12.23;;;9.27;;
7181;SDS011;3632;42.724;23.298;2022-10-16T07:18:53;12.70;;;8.50;;
7181;SDS011;3632;42.724;23.298;2022-10-16T07:21:23;8.87;;;7.97;;
7181;SDS011;3632;42.724;23.298;2022-10-16T07:23:52;8.10;;;7.20;;
7181;SDS011;3632;42.724;23.298;2022-10-16T07:26:19;10.70;;;7.40;;
7181;SDS011;3632;42.724;23.298;2022-10-16T07:28:46;9.27;;;8.00;;
7181;SDS011;3632;42.724;23.298;2022-10-16T07:31:13;8.60;;;7.77;;
7181;SDS011;3632;42.724;23.298;2022-10-16T07:33:42;11.73;;;9.27;;
7181;SDS011;3632;42.724;23.298;2022-10-16T07:36:12;12.83;;;9.87;;
7181;SDS011;3632;42.724;23.298;2022-10-16T07:38:40;9.17;;;7.47;;
7181;SDS011;3632;42.724;23.298;2022-10-16T07:41:09;11.10;;;8.13;;
7181;SDS011;3632;42.724;23.298;2022-10-16T07:43:37;10.17;;;7.77;;
7181;SDS011;3632;42.724;23.298;2022-10-16T07:46:04;10.97;;;8.30;;
7181;SDS011;3632;42.724;23.298;2022-10-16T07:48:37;12.77;;;8.20;;
7181;SDS011;3632;42.724;23.298;2022-10-16T07:51:12;11.00;;;8.13;;
7181;SDS011;3632;42.724;23.298;2022-10-16T07:53:41;10.83;;;7.90;;
7181;SDS011;3632;42.724;23.298;2022-10-16T07:56:08;11.20;;;8.20;;
7181;SDS011;3632;42.724;23.298;2022-10-16T07:58:35;12.17;;;9.63;;
7181;SDS011;3632;42.724;23.298;2022-10-16T08:01:03;14.00;;;11.27;;
7181;SDS011;3632;42.724;23.298;2022-10-16T08:03:31;13.43;;;11.00;;
7181;SDS011;3632;42.724;23.298;2022-10-16T08:05:58;13.57;;;10.47;;
7181;SDS011;3632;42.724;23.298;2022-10-16T08:08:27;13.93;;;11.13;;
7181;SDS011;3632;42.724;23.298;2022-10-16T08:10:54;13.83;;;10.83;;
7181;SDS011;3632;42.724;23.298;2022-10-16T08:13:21;12.43;;;10.67;;
7181;SDS011;3632;42.724;23.298;2022-10-16T08:15:48;12.57;;;11.00;;
7181;SDS011;3632;42.724;23.298;2022-10-16T08:18:15;16.27;;;13.27;;
7181;SDS011;3632;42.724;23.298;2022-10-16T08:20:42;13.90;;;10.17;;
7181;SDS011;3632;42.724;23.298;2022-10-16T08:23:09;13.27;;;10.13;;
7181;SDS011;3632;42.724;23.298;2022-10-16T08:25:39;12.47;;;8.43;;
7181;SDS011;3632;42.724;23.298;2022-10-16T08:28:06;12.67;;;8.57;;
7181;SDS011;3632;42.724;23.298;2022-10-16T08:30:34;12.60;;;8.90;;
7181;SDS011;3632;42.724;23.298;2022-10-16T08:33:02;13.77;;;9.17;;
7181;SDS011;3632;42.724;23.298;2022-10-16T08:35:29;13.20;;;8.63;;
7181;SDS011;3632;42.724;23.298;2022-10-16T08:37:56;10.87;;;8.17;;
7181;SDS011;3632;42.724;23.298;2022-10-16T08:40:24;9.07;;;7.43;;
7181;SDS011;3632;42.724;23.298;2022-10-16T08:45:49;7.70;;;6.33;;
7181;SDS011;3632;42.724;23.298;2022-10-16T08:51:07;9.23;;;6.20;;
7181;SDS011;3632;42.724;23.298;2022-10-16T08:53:38;7.10;;;5.87;;
7181;SDS011;3632;42.724;23.298;2022-10-16T08:56:11;7.63;;;5.93;;
7181;SDS011;3632;42.724;23.298;2022-10-16T08:58:37;5.80;;;5.20;;
7181;SDS011;3632;42.724;23.298;2022-10-16T09:01:10;4.10;;;3.70;;
7181;SDS011;3632;42.724;23.298;2022-10-16T09:03:46;3.83;;;3.43;;
7181;SDS011;3632;42.724;23.298;2022-10-16T09:06:32;5.80;;;4.10;;
7181;SDS011;3632;42.724;23.298;2022-10-16T09:12:08;3.63;;;3.23;;
7181;SDS011;3632;42.724;23.298;2022-10-16T09:14:50;3.57;;;3.27;;
7181;SDS011;3632;42.724;23.298;2022-10-16T09:17:30;5.03;;;3.40;;
7181;SDS011;3632;42.724;23.298;2022-10-16T09:20:12;4.13;;;3.63;;
7181;SDS011;3632;42.724;23.298;2022-10-16T09:22:44;5.77;;;4.00;;
7181;SDS011;3632;42.724;23.298;2022-10-16T09:25:12;8.40;;;4.77;;
7181;SDS011;3632;42.724;23.298;2022-10-16T09:27:42;7.07;;;6.00;;
7181;SDS011;3632;42.724;23.298;2022-10-16T09:30:13;4.93;;;4.30;;
7181;SDS011;3632;42.724;23.298;2022-10-16T09:32:43;4.63;;;3.90;;
7181;SDS011;3632;42.724;23.298;2022-10-16T09:35:13;4.30;;;3.90;;
7181;SDS011;3632;42.724;23.298;2022-10-16T09:37:43;6.67;;;4.10;;
7181;SDS011;3632;42.724;23.298;2022-10-16T09:40:12;5.37;;;3.70;;
7181;SDS011;3632;42.724;23.298;2022-10-16T09:42:49;4.33;;;3.60;;
7181;SDS011;3632;42.724;23.298;2022-10-16T09:45:23;4.87;;;3.40;;
7181;SDS011;3632;42.724;23.298;2022-10-16T09:47:51;3.90;;;3.50;;
7181;SDS011;3632;42.724;23.298;2022-10-16T09:50:20;3.63;;;3.33;;
7181;SDS011;3632;42.724;23.298;2022-10-16T09:52:51;4.53;;;3.93;;
7181;SDS011;3632;42.724;23.298;2022-10-16T09:55:28;8.33;;;5.97;;
7181;SDS011;3632;42.724;23.298;2022-10-16T09:57:55;4.40;;;4.00;;
7181;SDS011;3632;42.724;23.298;2022-10-16T10:00:23;5.60;;;3.93;;
7181;SDS011;3632;42.724;23.298;2022-10-16T10:02:52;4.60;;;3.60;;
7181;SDS011;3632;42.724;23.298;2022-10-16T10:05:20;4.73;;;3.77;;
7181;SDS011;3632;42.724;23.298;2022-10-16T10:07:53;5.63;;;4.10;;
7181;SDS011;3632;42.724;23.298;2022-10-16T10:10:23;4.23;;;3.83;;
7181;SDS011;3632;42.724;23.298;2022-10-16T10:12:52;6.40;;;4.63;;
7181;SDS011;3632;42.724;23.298;2022-10-16T10:15:20;7.37;;;3.67;;
7181;SDS011;3632;42.724;23.298;2022-10-16T10:17:50;7.13;;;4.37;;
7181;SDS011;3632;42.724;23.298;2022-10-16T10:20:23;8.37;;;4.23;;
7181;SDS011;3632;42.724;23.298;2022-10-16T10:22:53;7.87;;;7.03;;
7181;SDS011;3632;42.724;23.298;2022-10-16T10:25:26;7.20;;;4.70;;
7181;SDS011;3632;42.724;23.298;2022-10-16T10:28:13;6.53;;;3.83;;
7181;SDS011;3632;42.724;23.298;2022-10-16T10:31:00;5.40;;;3.70;;
7181;SDS011;3632;42.724;23.298;2022-10-16T10:33:34;7.70;;;3.80;;
7181;SDS011;3632;42.724;23.298;2022-10-16T10:38:54;4.00;;;3.50;;
7181;SDS011;3632;42.724;23.298;2022-10-16T10:44:42;5.80;;;3.50;;
7181;SDS011;3632;42.724;23.298;2022-10-16T10:47:28;3.63;;;3.17;;
7181;SDS011;3632;42.724;23.298;2022-10-16T10:50:10;3.90;;;3.50;;
7181;SDS011;3632;42.724;23.298;2022-10-16T10:52:49;6.93;;;4.87;;
7181;SDS011;3632;42.724;23.298;2022-10-16T10:55:26;4.63;;;3.90;;
7181;SDS011;3632;42.724;23.298;2022-10-16T10:58:17;4.93;;;3.20;;
7181;SDS011;3632;42.724;23.298;2022-10-16T11:01:10;3.93;;;3.40;;
7181;SDS011;3632;42.724;23.298;2022-10-16T11:03:46;5.03;;;4.53;;
7181;SDS011;3632;42.724;23.298;2022-10-16T11:06:32;5.80;;;3.20;;
7181;SDS011;3632;42.724;23.298;2022-10-16T11:09:06;4.23;;;3.17;;
7181;SDS011;3632;42.724;23.298;2022-10-16T11:11:38;4.27;;;3.27;;
7181;SDS011;3632;42.724;23.298;2022-10-16T11:14:11;3.70;;;3.30;;
7181;SDS011;3632;42.724;23.298;2022-10-16T11:16:43;4.33;;;3.27;;
7181;SDS011;3632;42.724;23.298;2022-10-16T11:19:15;6.73;;;3.53;;
7181;SDS011;3632;42.724;23.298;2022-10-16T11:21:56;4.53;;;3.70;;
7181;SDS011;3632;42.724;23.298;2022-10-16T11:24:33;3.63;;;3.20;;
7181;SDS011;3632;42.724;23.298;2022-10-16T11:27:07;6.10;;;3.93;;
7181;SDS011;3632;42.724;23.298;2022-10-16T11:29:44;3.70;;;3.20;;
7181;SDS011;3632;42.724;23.298;2022-10-16T11:32:18;3.50;;;3.20;;
7181;SDS011;3632;42.724;23.298;2022-10-16T11:34:50;4.07;;;3.53;;
7181;SDS011;3632;42.724;23.298;2022-10-16T11:37:25;4.00;;;3.10;;
7181;SDS011;3632;42.724;23.298;2022-10-16T11:39:58;5.20;;;4.63;;
7181;SDS011;3632;42.724;23.298;2022-10-16T11:42:30;4.33;;;3.20;;
7181;SDS011;3632;42.724;23.298;2022-10-16T11:45:07;3.43;;;3.13;;
7181;SDS011;3632;42.724;23.298;2022-10-16T11:47:43;3.87;;;3.23;;
7181;SDS011;3632;42.724;23.298;2022-10-16T11:50:18;6.27;;;3.30;;
7181;SDS011;3632;42.724;23.298;2022-10-16T11:52:53;4.87;;;3.10;;
7181;SDS011;3632;42.724;23.298;2022-10-16T11:55:27;3.43;;;3.03;;
7181;SDS011;3632;42.724;23.298;2022-10-16T11:57:59;3.90;;;2.70;;
7181;SDS011;3632;42.724;23.298;2022-10-16T12:00:33;3.70;;;2.93;;
7181;SDS011;3632;42.724;23.298;2022-10-16T12:03:09;3.90;;;3.47;;
7181;SDS011;3632;42.724;23.298;2022-10-16T12:05:50;4.40;;;3.30;;
7181;SDS011;3632;42.724;23.298;2022-10-16T12:08:26;5.70;;;3.27;;
7181;SDS011;3632;42.724;23.298;2022-10-16T12:10:54;6.17;;;3.43;;
7181;SDS011;3632;42.724;23.298;2022-10-16T12:13:34;3.50;;;3.13;;
7181;SDS011;3632;42.724;23.298;2022-10-16T12:16:06;4.77;;;3.30;;
7181;SDS011;3632;42.724;23.298;2022-10-16T12:18:46;4.13;;;3.33;;
7181;SDS011;3632;42.724;23.298;2022-10-16T12:21:14;6.03;;;3.47;;
7181;SDS011;3632;42.724;23.298;2022-10-16T12:23:49;4.50;;;3.00;;
7181;SDS011;3632;42.724;23.298;2022-10-16T12:26:23;4.47;;;3.10;;
7181;SDS011;3632;42.724;23.298;2022-10-16T12:28:51;4.20;;;3.60;;
7181;SDS011;3632;42.724;23.298;2022-10-16T12:31:18;4.37;;;3.07;;
7181;SDS011;3632;42.724;23.298;2022-10-16T12:33:52;3.43;;;3.13;;
7181;SDS011;3632;42.724;23.298;2022-10-16T12:36:27;3.53;;;2.90;;
7181;SDS011;3632;42.724;23.298;2022-10-16T12:38:57;5.97;;;3.10;;
7181;SDS011;3632;42.724;23.298;2022-10-16T12:41:26;4.33;;;2.73;;
7181;SDS011;3632;42.724;23.298;2022-10-16T12:43:54;3.53;;;2.97;;
7181;SDS011;3632;42.724;23.298;2022-10-16T12:46:33;3.10;;;2.77;;
7181;SDS011;3632;42.724;23.298;2022-10-16T12:49:16;3.97;;;2.80;;
7181;SDS011;3632;42.724;23.298;2022-10-16T12:51:49;2.93;;;2.67;;
7181;SDS011;3632;42.724;23.298;2022-10-16T12:54:18;8.03;;;3.87;;
7181;SDS011;3632;42.724;23.298;2022-10-16T12:56:50;8.23;;;3.40;;
7181;SDS011;3632;42.724;23.298;2022-10-16T12:59:28;4.77;;;3.20;;
7181;SDS011;3632;42.724;23.298;2022-10-16T13:05:20;4.70;;;3.38;;
7181;SDS011;3632;42.724;23.298;2022-10-16T13:07:56;3.10;;;2.83;;
7181;SDS011;3632;42.724;23.298;2022-10-16T13:10:35;3.63;;;2.90;;
7181;SDS011;3632;42.724;23.298;2022-10-16T13:13:11;3.10;;;2.40;;
7181;SDS011;3632;42.724;23.298;2022-10-16T13:15:56;3.20;;;2.53;;
7181;SDS011;3632;42.724;23.298;2022-10-16T13:18:33;3.35;;;2.72;;
7181;SDS011;3632;42.724;23.298;2022-10-16T13:21:18;3.00;;;2.78;;
7181;SDS011;3632;42.724;23.298;2022-10-16T13:23:58;2.80;;;2.60;;
7181;SDS011;3632;42.724;23.298;2022-10-16T13:26:35;4.22;;;2.40;;
7181;SDS011;3632;42.724;23.298;2022-10-16T13:29:08;2.67;;;2.40;;
7181;SDS011;3632;42.724;23.298;2022-10-16T13:31:36;4.03;;;2.78;;
7181;SDS011;3632;42.724;23.298;2022-10-16T13:34:04;9.48;;;2.95;;
7181;SDS011;3632;42.724;23.298;2022-10-16T13:36:34;5.63;;;3.65;;
7181;SDS011;3632;42.724;23.298;2022-10-16T13:39:10;6.47;;;3.35;;
7181;SDS011;3632;42.724;23.298;2022-10-16T13:41:40;4.95;;;3.53;;
7181;SDS011;3632;42.724;23.298;2022-10-16T13:44:11;6.97;;;4.50;;
7181;SDS011;3632;42.724;23.298;2022-10-16T13:46:40;4.90;;;2.85;;
7181;SDS011;3632;42.724;23.298;2022-10-16T13:49:11;4.78;;;2.90;;
7181;SDS011;3632;42.724;23.298;2022-10-16T13:51:40;5.50;;;2.92;;
7181;SDS011;3632;42.724;23.298;2022-10-16T13:54:08;3.67;;;2.80;;
7181;SDS011;3632;42.724;23.298;2022-10-16T13:56:38;5.95;;;3.03;;
7181;SDS011;3632;42.724;23.298;2022-10-16T13:59:20;4.60;;;3.00;;
7181;SDS011;3632;42.724;23.298;2022-10-16T14:01:50;3.27;;;2.50;;
7181;SDS011;3632;42.724;23.298;2022-10-16T14:04:19;2.50;;;2.30;;
7181;SDS011;3632;42.724;23.298;2022-10-16T14:06:49;3.20;;;2.30;;
7181;SDS011;3632;42.724;23.298;2022-10-16T14:09:20;3.60;;;2.50;;
7181;SDS011;3632;42.724;23.298;2022-10-16T14:11:51;3.03;;;2.70;;
7181;SDS011;3632;42.724;23.298;2022-10-16T14:14:22;4.67;;;2.63;;
7181;SDS011;3632;42.724;23.298;2022-10-16T14:16:50;6.43;;;2.80;;
7181;SDS011;3632;42.724;23.298;2022-10-16T14:19:18;2.60;;;2.40;;
7181;SDS011;3632;42.724;23.298;2022-10-16T14:21:49;3.47;;;3.10;;
7181;SDS011;3632;42.724;23.298;2022-10-16T14:24:24;4.17;;;2.40;;
7181;SDS011;3632;42.724;23.298;2022-10-16T14:26:53;3.10;;;2.40;;
7181;SDS011;3632;42.724;23.298;2022-10-16T14:29:23;3.27;;;2.90;;
7181;SDS011;3632;42.724;23.298;2022-10-16T14:31:55;3.97;;;2.60;;
7181;SDS011;3632;42.724;23.298;2022-10-16T14:34:28;5.03;;;2.77;;
7181;SDS011;3632;42.724;23.298;2022-10-16T14:36:58;5.80;;;4.37;;
7181;SDS011;3632;42.724;23.298;2022-10-16T14:39:29;4.80;;;3.47;;
7181;SDS011;3632;42.724;23.298;2022-10-16T14:41:56;6.87;;;2.90;;
7181;SDS011;3632;42.724;23.298;2022-10-16T14:44:28;3.50;;;2.60;;
7181;SDS011;3632;42.724;23.298;2022-10-16T14:46:58;4.40;;;3.03;;
7181;SDS011;3632;42.724;23.298;2022-10-16T14:49:34;8.30;;;7.03;;
7181;SDS011;3632;42.724;23.298;2022-10-16T14:52:00;5.27;;;3.40;;
7181;SDS011;3632;42.724;23.298;2022-10-16T14:54:28;5.40;;;4.30;;
7181;SDS011;3632;42.724;23.298;2022-10-16T14:56:55;3.87;;;2.70;;
7181;SDS011;3632;42.724;23.298;2022-10-16T14:59:25;3.97;;;3.30;;
7181;SDS011;3632;42.724;23.298;2022-10-16T15:01:56;3.90;;;3.00;;
7181;SDS011;3632;42.724;23.298;2022-10-16T15:04:23;3.90;;;3.03;;
7181;SDS011;3632;42.724;23.298;2022-10-16T15:06:51;3.80;;;3.00;;
7181;SDS011;3632;42.724;23.298;2022-10-16T15:09:18;8.30;;;4.73;;
7181;SDS011;3632;42.724;23.298;2022-10-16T15:11:45;4.40;;;2.90;;
7181;SDS011;3632;42.724;23.298;2022-10-16T15:14:12;9.47;;;6.13;;
7181;SDS011;3632;42.724;23.298;2022-10-16T15:16:41;6.67;;;3.20;;
7181;SDS011;3632;42.724;23.298;2022-10-16T15:19:08;5.23;;;3.57;;
7181;SDS011;3632;42.724;23.298;2022-10-16T15:21:35;3.87;;;3.00;;
7181;SDS011;3632;42.724;23.298;2022-10-16T15:24:02;5.77;;;4.47;;
7181;SDS011;3632;42.724;23.298;2022-10-16T15:26:29;6.40;;;5.30;;